createdAt,value
2019-05-06T00:00:33.971Z,6.80
2019-05-06T00:03:05.091Z,7.27
2019-05-06T00:05:36.084Z,8.33
2019-05-06T00:08:06.745Z,6.03
2019-05-06T00:10:37.718Z,8.60
2019-05-06T00:13:08.747Z,5.07
2019-05-06T00:15:39.326Z,4.73
2019-05-06T00:18:09.783Z,10.33
2019-05-06T00:20:40.377Z,4.67
2019-05-06T00:23:25.438Z,6.20
2019-05-06T00:26:16.382Z,8.87
2019-05-06T00:28:53.923Z,6.20
2019-05-06T00:31:24.847Z,6.07
2019-05-06T00:33:55.889Z,5.07
2019-05-06T00:36:26.465Z,4.97
2019-05-06T00:39:00.482Z,5.10
2019-05-06T00:41:36.460Z,6.07
2019-05-06T00:44:06.694Z,6.10
2019-05-06T00:46:37.243Z,6.90
2019-05-06T00:49:07.716Z,5.10
2019-05-06T00:51:38.441Z,6.43
2019-05-06T00:54:15.186Z,5.73
2019-05-06T00:56:46.068Z,7.90
2019-05-06T00:59:16.900Z,9.83
2019-05-06T01:01:47.634Z,5.47
2019-05-06T01:04:18.218Z,6.27
2019-05-06T01:06:49.073Z,6.10
2019-05-06T01:09:20.736Z,5.47
2019-05-06T01:11:54.197Z,7.83
2019-05-06T01:14:32.078Z,5.60
2019-05-06T01:17:03.967Z,9.53
2019-05-06T01:19:34.558Z,5.13
2019-05-06T01:22:05.194Z,5.13
2019-05-06T01:24:36.126Z,10.37
2019-05-06T01:27:07.834Z,6.63
2019-05-06T01:29:38.333Z,5.87
2019-05-06T01:32:08.845Z,4.70
2019-05-06T01:34:39.299Z,3.67
2019-05-06T01:37:09.874Z,3.43
2019-05-06T01:39:58.190Z,3.30
2019-05-06T01:42:36.639Z,3.00
2019-05-06T01:45:07.911Z,5.80
2019-05-06T01:47:38.391Z,5.33
2019-05-06T01:50:09.412Z,3.13
2019-05-06T01:52:40.185Z,3.53
2019-05-06T01:55:11.119Z,4.10
2019-05-06T01:57:41.689Z,2.90
2019-05-06T02:00:14.058Z,5.13
2019-05-06T02:02:45.695Z,3.40
2019-05-06T02:05:16.306Z,5.80
2019-05-06T02:07:47.055Z,4.17
2019-05-06T02:10:17.712Z,4.77
2019-05-06T02:12:48.408Z,4.73
2019-05-06T02:15:18.907Z,3.03
2019-05-06T02:17:49.614Z,4.53
2019-05-06T02:20:20.281Z,3.37
2019-05-06T02:22:56.700Z,2.27
2019-05-06T02:25:34.153Z,5.83
2019-05-06T02:28:04.885Z,3.30
2019-05-06T02:30:54.823Z,4.80
2019-05-06T02:33:47.427Z,3.13
2019-05-06T02:36:29.179Z,4.50
2019-05-06T02:38:59.784Z,8.87
2019-05-06T02:41:33.964Z,3.93
2019-05-06T02:44:04.740Z,2.80
2019-05-06T02:46:36.123Z,3.37
2019-05-06T02:49:20.151Z,4.80
2019-05-06T02:51:53.470Z,2.90
2019-05-06T02:54:23.704Z,5.07
2019-05-06T02:56:54.165Z,5.47
2019-05-06T02:59:24.732Z,6.00
2019-05-06T03:01:55.322Z,3.50
2019-05-06T03:04:25.775Z,3.80
2019-05-06T03:06:57.192Z,3.73
2019-05-06T03:09:27.799Z,3.37
2019-05-06T03:11:58.459Z,4.83
2019-05-06T03:14:29.060Z,5.77
2019-05-06T03:16:59.667Z,5.23
2019-05-06T03:19:34.116Z,6.47
2019-05-06T03:22:24.094Z,3.93
2019-05-06T03:25:18.956Z,4.20
2019-05-06T03:27:49.617Z,4.83
2019-05-06T03:30:24.993Z,4.43
2019-05-06T03:33:27.609Z,4.83
2019-05-06T03:35:42.003Z,6.00
2019-05-06T03:37:57.298Z,3.33
2019-05-06T03:40:27.887Z,4.80
2019-05-06T03:42:58.470Z,5.43
2019-05-06T03:45:42.728Z,6.40
2019-05-06T03:48:24.511Z,2.83
2019-05-06T03:50:56.022Z,6.67
2019-05-06T03:53:33.310Z,5.37
2019-05-06T03:56:03.579Z,6.37
2019-05-06T03:58:36.593Z,5.37
2019-05-06T04:01:07.696Z,21.03
2019-05-06T04:03:46.769Z,18.93
2019-05-06T04:06:13.766Z,11.87
2019-05-06T04:08:44.479Z,12.67
2019-05-06T04:11:18.052Z,19.90
2019-05-06T04:13:53.205Z,10.30
2019-05-06T04:16:33.628Z,4.20
2019-05-06T04:19:23.743Z,4.20
2019-05-06T04:22:12.761Z,4.17
2019-05-06T04:24:54.921Z,4.67
2019-05-06T04:27:42.967Z,5.87
2019-05-06T04:30:14.485Z,3.03
2019-05-06T04:32:45.083Z,12.07
2019-05-06T04:35:15.965Z,3.10
2019-05-06T04:37:47.302Z,17.57
2019-05-06T04:40:19.087Z,7.30
2019-05-06T04:42:52.692Z,2.50
2019-05-06T04:45:25.250Z,4.77
2019-05-06T04:47:56.129Z,3.07
2019-05-06T04:50:27.042Z,5.10
2019-05-06T04:53:04.888Z,5.60
2019-05-06T04:55:37.344Z,7.57
2019-05-06T04:58:08.198Z,5.80
2019-05-06T05:00:39.268Z,5.73
2019-05-06T05:03:10.348Z,4.00
2019-05-06T05:05:41.158Z,3.70
2019-05-06T05:08:13.317Z,4.23
2019-05-06T05:11:09.584Z,3.37
2019-05-06T05:14:21.714Z,2.33
2019-05-06T05:16:55.308Z,6.67
2019-05-06T05:19:26.430Z,4.80
2019-05-06T05:22:06.216Z,7.27
2019-05-06T05:24:38.491Z,2.80
2019-05-06T05:27:09.609Z,3.60
2019-05-06T05:29:42.220Z,2.93
2019-05-06T05:32:12.896Z,2.37
2019-05-06T05:34:43.716Z,4.13
2019-05-06T05:37:14.867Z,6.70
2019-05-06T05:39:45.842Z,11.50
2019-05-06T05:42:22.578Z,4.30
2019-05-06T05:44:53.842Z,4.87
2019-05-06T05:47:24.417Z,8.10
2019-05-06T05:50:22.671Z,4.57
2019-05-06T05:52:53.153Z,3.73
2019-05-06T05:55:24.015Z,4.00
2019-05-06T05:57:54.645Z,5.77
2019-05-06T06:00:27.343Z,2.53
2019-05-06T06:02:58.369Z,5.60
2019-05-06T06:05:29.255Z,7.40
2019-05-06T06:08:02.652Z,9.40
2019-05-06T06:10:44.160Z,2.07
2019-05-06T06:13:15.226Z,2.43
2019-05-06T06:16:20.293Z,4.17
2019-05-06T06:19:13.110Z,4.03
2019-05-06T06:21:48.056Z,10.30
2019-05-06T06:24:49.745Z,3.17
2019-05-06T06:27:22.240Z,4.13
2019-05-06T06:29:52.986Z,2.00
2019-05-06T06:32:25.782Z,7.00
2019-05-06T06:35:14.773Z,2.10
2019-05-06T06:37:54.214Z,8.27
2019-05-06T06:40:27.037Z,8.57
2019-05-06T06:43:04.686Z,3.20
2019-05-06T06:45:36.739Z,3.63
2019-05-06T06:48:07.752Z,4.33
2019-05-06T06:50:38.347Z,14.10
2019-05-06T06:53:09.493Z,11.23
2019-05-06T06:55:42.671Z,8.70
2019-05-06T06:58:32.925Z,6.07
2019-05-06T07:01:23.500Z,2.17
2019-05-06T07:04:10.035Z,8.40
2019-05-06T07:06:55.979Z,8.27
2019-05-06T07:09:29.636Z,2.97
2019-05-06T07:11:58.975Z,3.33
2019-05-06T07:14:32.221Z,8.43
2019-05-06T07:17:02.458Z,2.63
2019-05-06T07:19:42.133Z,12.80
2019-05-06T07:22:12.733Z,7.80
2019-05-06T07:24:43.459Z,5.93
2019-05-06T07:27:23.040Z,2.97
2019-05-06T07:29:54.818Z,3.60
2019-05-06T07:32:25.444Z,3.33
2019-05-06T07:34:56.224Z,7.40
2019-05-06T07:37:28.987Z,3.90
2019-05-06T07:39:59.626Z,5.70
2019-05-06T07:42:40.208Z,10.23
2019-05-06T07:45:35.920Z,5.77
2019-05-06T07:48:08.821Z,4.70
2019-05-06T07:50:39.374Z,4.70
2019-05-06T07:53:10.564Z,5.67
2019-05-06T07:55:42.378Z,3.03
2019-05-06T07:58:14.202Z,5.43
2019-05-06T08:00:44.658Z,3.20
2019-05-06T08:03:15.327Z,3.23
2019-05-06T08:05:55.864Z,4.67
2019-05-06T08:08:18.768Z,5.90
2019-05-06T08:10:50.237Z,7.50
2019-05-06T08:13:22.594Z,4.83
2019-05-06T08:15:53.659Z,3.20
2019-05-06T08:18:24.993Z,3.13
2019-05-06T08:20:56.950Z,2.23
2019-05-06T08:23:49.044Z,5.00
2019-05-06T08:26:22.254Z,2.57
2019-05-06T08:28:52.928Z,3.87
2019-05-06T08:31:24.205Z,3.73
2019-05-06T08:33:54.679Z,9.03
2019-05-06T08:36:44.686Z,6.00
2019-05-06T08:39:15.370Z,6.27
2019-05-06T08:41:46.151Z,15.90
2019-05-06T08:44:17.323Z,17.27
2019-05-06T08:46:47.938Z,4.97
2019-05-06T08:49:18.812Z,8.10
2019-05-06T08:52:06.292Z,5.43
2019-05-06T08:54:44.000Z,15.10
2019-05-06T08:57:15.152Z,6.70
2019-05-06T08:59:46.026Z,4.57
2019-05-06T09:02:17.393Z,5.00
2019-05-06T09:04:48.338Z,2.37
2019-05-06T09:07:19.261Z,2.70
2019-05-06T09:09:50.032Z,2.80
2019-05-06T09:12:22.372Z,7.70
2019-05-06T09:14:54.038Z,1.70
2019-05-06T09:17:24.986Z,7.40
2019-05-06T09:19:55.664Z,3.63
2019-05-06T09:22:26.524Z,1.90
2019-05-06T09:24:57.175Z,1.67
2019-05-06T09:27:45.670Z,6.97
2019-05-06T09:30:23.027Z,7.00
2019-05-06T09:32:54.057Z,8.17
2019-05-06T09:35:25.336Z,1.97
2019-05-06T09:37:56.234Z,1.73
2019-05-06T09:40:26.901Z,12.40
2019-05-06T09:42:57.719Z,4.50
2019-05-06T09:45:28.361Z,6.33
2019-05-06T09:48:13.880Z,2.37
2019-05-06T09:50:46.751Z,1.90
2019-05-06T09:53:23.102Z,10.77
2019-05-06T09:56:18.965Z,2.07
2019-05-06T09:58:49.679Z,5.00
2019-05-06T10:01:22.471Z,6.43
2019-05-06T10:03:53.329Z,5.03
2019-05-06T10:06:24.038Z,3.63
2019-05-06T10:08:54.819Z,3.20
2019-05-06T10:11:25.596Z,2.37
2019-05-06T10:13:56.861Z,4.60
2019-05-06T10:16:27.735Z,2.00
2019-05-06T10:18:59.077Z,13.40
2019-05-06T10:21:32.184Z,9.50
2019-05-06T10:24:03.015Z,12.20
2019-05-06T10:26:37.616Z,4.83
2019-05-06T10:29:43.241Z,5.40
2019-05-06T10:32:45.458Z,2.27
2019-05-06T10:35:16.428Z,2.40
2019-05-06T10:38:14.324Z,10.13
2019-05-06T10:41:02.800Z,10.17
2019-05-06T10:44:04.113Z,11.63
2019-05-06T10:46:35.424Z,11.70
2019-05-06T10:49:06.042Z,4.30
2019-05-06T10:51:44.405Z,10.87
2019-05-06T10:54:15.060Z,3.90
2019-05-06T10:57:02.142Z,5.90
2019-05-06T10:59:32.727Z,3.23
2019-05-06T11:02:25.863Z,5.10
2019-05-06T11:04:56.657Z,2.50
2019-05-06T11:07:31.766Z,2.83
2019-05-06T11:10:02.436Z,4.40
2019-05-06T11:12:34.051Z,7.63
2019-05-06T11:15:05.502Z,7.13
2019-05-06T11:17:36.663Z,6.40
2019-05-06T11:20:10.585Z,3.70
2019-05-06T11:22:43.364Z,2.77
2019-05-06T11:25:14.662Z,2.63
2019-05-06T11:27:45.471Z,8.70
2019-05-06T11:30:35.013Z,4.23
2019-05-06T11:33:15.940Z,2.27
2019-05-06T11:35:58.984Z,3.23
2019-05-06T11:38:31.919Z,27.40
2019-05-06T11:41:02.362Z,6.00
2019-05-06T11:43:33.328Z,30.33
2019-05-06T11:46:04.047Z,6.40
2019-05-06T11:48:35.084Z,8.70
2019-05-06T11:51:07.495Z,3.87
2019-05-06T11:53:38.340Z,6.57
2019-05-06T11:56:08.855Z,6.03
2019-05-06T11:58:44.112Z,3.13
2019-05-06T12:01:33.663Z,5.63
2019-05-06T12:04:04.615Z,4.23
2019-05-06T12:06:36.577Z,5.83
2019-05-06T12:09:13.233Z,3.60
2019-05-06T12:11:43.220Z,3.37
2019-05-06T12:14:14.295Z,2.80
2019-05-06T12:16:44.993Z,8.90
2019-05-06T12:19:16.050Z,3.73
2019-05-06T12:21:46.701Z,6.13
2019-05-06T12:24:17.526Z,3.13
2019-05-06T12:26:48.565Z,3.97
2019-05-06T12:29:19.466Z,2.30
2019-05-06T12:31:57.449Z,10.13
2019-05-06T12:34:28.162Z,3.27
2019-05-06T12:37:02.695Z,4.60
2019-05-06T12:39:33.938Z,17.47
2019-05-06T12:42:26.254Z,2.33
2019-05-06T12:45:19.744Z,37.30
2019-05-06T12:47:57.070Z,9.20
2019-05-06T12:50:27.612Z,5.70
2019-05-06T12:53:00.320Z,3.30
2019-05-06T12:55:33.469Z,10.90
2019-05-06T12:58:03.660Z,6.07
2019-05-06T13:00:34.684Z,14.40
2019-05-06T13:03:05.842Z,24.17
2019-05-06T13:05:36.775Z,15.70
2019-05-06T13:08:07.924Z,12.57
2019-05-06T13:10:38.595Z,3.00
2019-05-06T13:13:09.392Z,4.80
2019-05-06T13:15:40.103Z,4.77
2019-05-06T13:18:10.672Z,8.37
2019-05-06T13:20:48.398Z,3.00
2019-05-06T13:23:24.608Z,6.57
2019-05-06T13:25:52.747Z,2.67
2019-05-06T13:28:24.901Z,7.47
2019-05-06T13:30:55.642Z,4.30
2019-05-06T13:33:39.757Z,4.90
2019-05-06T13:36:12.963Z,2.73
2019-05-06T13:38:43.083Z,6.97
2019-05-06T13:41:13.851Z,3.73
2019-05-06T13:44:13.279Z,9.87
2019-05-06T13:46:47.691Z,6.30
2019-05-06T13:49:42.579Z,2.50
2019-05-06T13:52:13.915Z,4.93
2019-05-06T13:54:45.864Z,12.30
2019-05-06T13:57:16.291Z,5.97
2019-05-06T13:59:48.585Z,8.67
2019-05-06T14:02:34.737Z,3.30
2019-05-06T14:05:06.693Z,3.07
2019-05-06T14:07:37.595Z,10.53
2019-05-06T14:10:08.488Z,11.77
2019-05-06T14:12:39.234Z,2.70
2019-05-06T14:15:12.320Z,17.47
2019-05-06T14:17:42.687Z,6.63
2019-05-06T14:20:15.942Z,12.80
2019-05-06T14:22:46.786Z,5.60
2019-05-06T14:25:48.604Z,4.30
2019-05-06T14:28:44.055Z,15.83
2019-05-06T14:31:25.334Z,7.10
2019-05-06T14:33:54.625Z,8.83
2019-05-06T14:36:27.556Z,14.97
2019-05-06T14:38:57.821Z,9.17
2019-05-06T14:41:28.904Z,3.40
2019-05-06T14:43:59.556Z,7.07
2019-05-06T14:46:51.058Z,8.00
2019-05-06T14:49:22.565Z,5.03
2019-05-06T14:51:53.790Z,16.47
2019-05-06T14:54:24.643Z,17.17
2019-05-06T14:56:59.406Z,22.83
2019-05-06T14:59:32.793Z,5.67
2019-05-06T15:02:03.247Z,8.50
2019-05-06T15:04:33.950Z,7.10
2019-05-06T15:07:04.783Z,6.13
2019-05-06T15:09:35.327Z,6.43
2019-05-06T15:12:06.140Z,4.30
2019-05-06T15:14:36.652Z,6.77
2019-05-06T15:17:07.819Z,5.67
2019-05-06T15:19:38.520Z,2.40
2019-05-06T15:22:09.606Z,7.93
2019-05-06T15:24:42.660Z,26.07
2019-05-06T15:27:12.974Z,12.10
2019-05-06T15:29:48.546Z,6.37
2019-05-06T15:32:25.487Z,6.70
2019-05-06T15:35:18.646Z,8.83
2019-05-06T15:38:02.426Z,5.27
2019-05-06T15:40:36.528Z,15.50
2019-05-06T15:43:05.846Z,7.73
2019-05-06T15:45:37.013Z,9.10
2019-05-06T15:48:07.907Z,6.53
2019-05-06T15:50:41.907Z,11.37
2019-05-06T15:53:12.586Z,5.10
2019-05-06T15:55:43.770Z,8.10
2019-05-06T15:58:14.891Z,6.40
2019-05-06T16:00:46.214Z,9.13
2019-05-06T16:03:17.148Z,21.97
2019-05-06T16:05:48.061Z,6.07
2019-05-06T16:08:19.047Z,30.27
2019-05-06T16:10:52.541Z,13.90
2019-05-06T16:13:22.563Z,8.70
2019-05-06T16:15:53.451Z,7.22
2019-05-06T16:18:24.223Z,5.10
2019-05-06T16:20:57.463Z,8.13
2019-05-06T16:23:36.692Z,4.27
2019-05-06T16:26:07.147Z,7.73
2019-05-06T16:28:37.913Z,8.10
2019-05-06T16:31:08.753Z,11.53
2019-05-06T16:33:39.575Z,6.40
2019-05-06T16:36:10.238Z,17.37
2019-05-06T16:38:42.827Z,11.07
2019-05-06T16:41:16.219Z,8.00
2019-05-06T16:43:46.433Z,13.30
2019-05-06T16:46:17.143Z,27.10
2019-05-06T16:48:47.856Z,5.60
2019-05-06T16:51:18.555Z,12.90
2019-05-06T16:53:49.587Z,6.73
2019-05-06T16:56:33.251Z,11.13
2019-05-06T16:59:04.548Z,3.93
2019-05-06T17:01:36.855Z,14.43
2019-05-06T17:04:23.197Z,10.93
2019-05-06T17:06:54.486Z,25.80
2019-05-06T17:09:27.762Z,18.87
2019-05-06T17:11:58.173Z,9.40
2019-05-06T17:14:29.367Z,10.90
2019-05-06T17:17:00.581Z,22.57
2019-05-06T17:19:32.907Z,7.90
2019-05-06T17:22:04.569Z,8.90
2019-05-06T17:24:35.442Z,16.87
2019-05-06T17:27:06.376Z,14.60
2019-05-06T17:29:49.790Z,6.40
2019-05-06T17:32:33.469Z,7.57
2019-05-06T17:35:06.270Z,11.93
2019-05-06T17:37:55.690Z,6.93
2019-05-06T17:40:27.009Z,12.37
2019-05-06T17:42:57.903Z,16.17
2019-05-06T17:46:06.838Z,10.90
2019-05-06T17:48:52.845Z,40.50
2019-05-06T17:51:28.679Z,21.97
2019-05-06T17:54:00.361Z,39.30
2019-05-06T17:56:31.395Z,55.70
2019-05-06T17:59:03.221Z,28.03
2019-05-06T18:01:38.208Z,18.50
2019-05-06T18:04:09.021Z,10.67
2019-05-06T18:06:42.227Z,12.43
2019-05-06T18:09:12.836Z,13.57
2019-05-06T18:11:57.842Z,20.53
2019-05-06T18:14:17.190Z,19.83
2019-05-06T18:16:49.878Z,10.60
2019-05-06T18:19:22.283Z,13.43
2019-05-06T18:21:53.203Z,15.00
2019-05-06T18:24:24.529Z,11.47
2019-05-06T18:26:55.145Z,17.60
2019-05-06T18:29:26.151Z,15.60
2019-05-06T18:31:57.615Z,48.97
2019-05-06T18:34:28.434Z,83.53
2019-05-06T18:36:59.307Z,32.60
2019-05-06T18:39:30.224Z,26.03
2019-05-06T18:42:13.388Z,16.70
2019-05-06T18:44:34.002Z,21.33
2019-05-06T18:47:05.039Z,20.17
2019-05-06T18:49:36.174Z,24.27
2019-05-06T18:52:07.074Z,15.73
2019-05-06T18:54:40.083Z,16.23
2019-05-06T18:57:12.785Z,15.33
2019-05-06T18:59:44.543Z,17.47
2019-05-06T19:02:15.174Z,19.55
2019-05-06T19:04:56.802Z,28.50
2019-05-06T19:07:28.003Z,20.17
2019-05-06T19:10:03.369Z,20.33
2019-05-06T19:12:40.667Z,19.07
2019-05-06T19:15:09.204Z,15.77
2019-05-06T19:17:44.036Z,21.00
2019-05-06T19:20:15.224Z,13.30
2019-05-06T19:22:46.833Z,11.60
2019-05-06T19:25:17.972Z,5.97
2019-05-06T19:27:48.863Z,4.93
2019-05-06T19:30:22.449Z,14.80
2019-05-06T19:32:53.747Z,11.97
2019-05-06T19:35:24.828Z,11.17
2019-05-06T19:37:55.405Z,12.87
2019-05-06T19:40:26.273Z,13.30
2019-05-06T19:42:57.238Z,19.10
2019-05-06T19:45:29.446Z,13.57
2019-05-06T19:48:02.866Z,18.50
2019-05-06T19:50:33.534Z,16.23
2019-05-06T19:53:04.460Z,20.37
2019-05-06T19:55:35.273Z,21.77
2019-05-06T19:58:06.448Z,20.57
2019-05-06T20:00:37.089Z,19.03
2019-05-06T20:03:07.865Z,19.10
2019-05-06T20:06:02.291Z,18.07
2019-05-06T20:08:42.968Z,22.70
2019-05-06T20:11:22.980Z,20.40
2019-05-06T20:13:53.738Z,21.67
2019-05-06T20:16:25.017Z,23.23
2019-05-06T20:18:55.810Z,20.77
2019-05-06T20:21:26.688Z,22.80
2019-05-06T20:23:57.786Z,21.90
2019-05-06T20:26:28.369Z,18.33
2019-05-06T20:28:59.267Z,22.83
2019-05-06T20:31:32.162Z,19.93
2019-05-06T20:34:02.804Z,13.20
2019-05-06T20:36:33.391Z,15.10
2019-05-06T20:39:06.102Z,23.33
2019-05-06T20:41:39.450Z,17.37
2019-05-06T20:44:12.342Z,16.20
2019-05-06T20:46:43.018Z,15.00
2019-05-06T20:49:13.931Z,23.93
2019-05-06T20:51:44.919Z,20.73
2019-05-06T20:54:16.133Z,20.67
2019-05-06T20:56:46.810Z,26.23
2019-05-06T20:59:17.851Z,18.93
2019-05-06T21:01:48.381Z,15.77
2019-05-06T21:04:19.394Z,21.30
2019-05-06T21:06:50.158Z,17.83
2019-05-06T21:09:23.141Z,21.03
2019-05-06T21:11:53.358Z,14.47
2019-05-06T21:14:24.320Z,17.63
2019-05-06T21:16:55.526Z,35.17
2019-05-06T21:19:26.261Z,19.73
2019-05-06T21:21:56.969Z,31.53
2019-05-06T21:24:27.839Z,22.13
2019-05-06T21:26:58.493Z,20.03
2019-05-06T21:29:29.540Z,15.13
2019-05-06T21:32:02.679Z,19.47
2019-05-06T21:34:33.027Z,13.07
2019-05-06T21:37:03.877Z,17.07
2019-05-06T21:39:35.024Z,14.13
2019-05-06T21:42:07.366Z,13.53
2019-05-06T21:44:38.519Z,17.80
2019-05-06T21:47:09.280Z,18.77
2019-05-06T21:49:42.198Z,14.40
2019-05-06T21:52:13.205Z,19.37
2019-05-06T21:54:44.009Z,16.03
2019-05-06T21:57:14.920Z,13.33
2019-05-06T21:59:45.566Z,14.30
2019-05-06T22:02:17.602Z,23.27
2019-05-06T22:04:48.067Z,13.10
2019-05-06T22:07:18.995Z,16.63
2019-05-06T22:09:49.896Z,15.70
2019-05-06T22:12:24.302Z,15.70
2019-05-06T22:14:53.089Z,17.07
2019-05-06T22:17:23.837Z,19.03
2019-05-06T22:19:54.384Z,17.97
2019-05-06T22:22:27.490Z,19.50
2019-05-06T22:24:58.130Z,17.40
2019-05-06T22:27:30.076Z,13.43
2019-05-06T22:30:03.067Z,17.07
2019-05-06T22:32:45.606Z,18.03
2019-05-06T22:35:17.577Z,15.40
2019-05-06T22:37:48.285Z,20.27
2019-05-06T22:40:23.562Z,19.43
2019-05-06T22:42:52.894Z,23.50
2019-05-06T22:45:23.720Z,17.13
2019-05-06T22:47:55.221Z,17.40
2019-05-06T22:50:26.149Z,16.03
2019-05-06T22:52:58.040Z,21.40
2019-05-06T22:55:29.056Z,18.73
2019-05-06T22:58:02.389Z,16.37
2019-05-06T23:00:35.015Z,17.57
2019-05-06T23:03:09.638Z,12.97
2019-05-06T23:05:42.262Z,21.87
2019-05-06T23:08:12.530Z,15.53
2019-05-06T23:10:44.606Z,18.10
2019-05-06T23:13:15.228Z,32.30
2019-05-06T23:15:45.929Z,20.87
2019-05-06T23:18:16.748Z,18.93
2019-05-06T23:20:47.311Z,19.90
2019-05-06T23:23:18.410Z,19.80
2019-05-06T23:26:07.900Z,17.77
2019-05-06T23:28:38.504Z,16.97
2019-05-06T23:31:09.090Z,36.63
2019-05-06T23:33:39.913Z,15.50
2019-05-06T23:36:12.085Z,17.90
2019-05-06T23:39:18.755Z,14.43
2019-05-06T23:42:25.023Z,15.87
2019-05-06T23:45:32.457Z,15.83
2019-05-06T23:48:39.371Z,13.63
2019-05-06T23:51:45.783Z,16.00
2019-05-06T23:54:52.453Z,24.27
2019-05-06T23:57:22.515Z,12.20
2019-05-06T23:59:54.645Z,14.73
